Terminal Aerodrome Forecast
Issued by NWS

Home | Current Version | Previous Version | Text Only | Print | Product List | Glossary On
Versions: 1 2 3 4 5 6 7 8 9 10 11 12 13 14 15 16
000
FTUS44 KBMX 220800 AAC
TAFEET
TAF AMD
KEET 220804Z 2208/2306 34005KT P6SM VCTS BKN050CB
      TEMPO 2208/2209 5SM -TSRA SCT015 BKN035CB
     FM220900 36012KT P6SM BKN050
     FM221500 36010G16KT P6SM FEW250
     FM230100 VRB03KT P6SM SKC=

USA.gov is the U.S. government's official web portal to all federal, state and local government web resources and services.